sensor_id;sensor_type;location;lat;lon;timestamp;P1;durP1;ratioP1;P2;durP2;ratioP2
22603;SDS011;11469;49.024;8.246;2023-07-02T00:00:19;5.72;;;4.38;;
22603;SDS011;11469;49.024;8.246;2023-07-02T00:02:45;6.85;;;4.20;;
22603;SDS011;11469;49.024;8.246;2023-07-02T00:05:10;7.45;;;4.85;;
22603;SDS011;11469;49.024;8.246;2023-07-02T00:07:36;6.20;;;4.15;;
22603;SDS011;11469;49.024;8.246;2023-07-02T00:10:02;7.75;;;4.50;;
22603;SDS011;11469;49.024;8.246;2023-07-02T00:12:28;6.13;;;4.05;;
22603;SDS011;11469;49.024;8.246;2023-07-02T00:14:53;7.85;;;4.60;;
22603;SDS011;11469;49.024;8.246;2023-07-02T00:17:19;8.75;;;4.65;;
22603;SDS011;11469;49.024;8.246;2023-07-02T00:19:44;5.78;;;3.58;;
22603;SDS011;11469;49.024;8.246;2023-07-02T00:22:11;5.50;;;4.00;;
22603;SDS011;11469;49.024;8.246;2023-07-02T00:24:37;7.10;;;4.22;;
22603;SDS011;11469;49.024;8.246;2023-07-02T00:27:02;9.15;;;4.50;;
22603;SDS011;11469;49.024;8.246;2023-07-02T00:29:28;8.13;;;4.43;;
22603;SDS011;11469;49.024;8.246;2023-07-02T00:31:54;10.07;;;4.47;;
22603;SDS011;11469;49.024;8.246;2023-07-02T00:34:19;12.50;;;4.85;;
22603;SDS011;11469;49.024;8.246;2023-07-02T00:36:44;5.75;;;4.35;;
22603;SDS011;11469;49.024;8.246;2023-07-02T00:39:10;5.10;;;3.92;;
22603;SDS011;11469;49.024;8.246;2023-07-02T00:41:38;5.50;;;4.25;;
22603;SDS011;11469;49.024;8.246;2023-07-02T00:44:06;6.10;;;4.47;;
22603;SDS011;11469;49.024;8.246;2023-07-02T00:46:33;8.68;;;5.05;;
22603;SDS011;11469;49.024;8.246;2023-07-02T00:48:58;6.75;;;4.15;;
22603;SDS011;11469;49.024;8.246;2023-07-02T00:51:26;9.43;;;4.45;;
22603;SDS011;11469;49.024;8.246;2023-07-02T00:53:53;8.18;;;4.03;;
22603;SDS011;11469;49.024;8.246;2023-07-02T00:56:20;6.28;;;4.55;;
22603;SDS011;11469;49.024;8.246;2023-07-02T00:58:46;8.55;;;4.40;;
22603;SDS011;11469;49.024;8.246;2023-07-02T01:01:25;6.55;;;4.65;;
22603;SDS011;11469;49.024;8.246;2023-07-02T01:04:00;10.13;;;4.75;;
22603;SDS011;11469;49.024;8.246;2023-07-02T01:06:27;7.43;;;4.88;;
22603;SDS011;11469;49.024;8.246;2023-07-02T01:08:55;8.10;;;4.82;;
22603;SDS011;11469;49.024;8.246;2023-07-02T01:11:28;8.85;;;4.70;;
22603;SDS011;11469;49.024;8.246;2023-07-02T01:14:01;12.57;;;5.15;;
22603;SDS011;11469;49.024;8.246;2023-07-02T01:16:29;10.02;;;4.75;;
22603;SDS011;11469;49.024;8.246;2023-07-02T01:18:58;7.85;;;4.47;;
22603;SDS011;11469;49.024;8.246;2023-07-02T01:21:28;11.00;;;5.20;;
22603;SDS011;11469;49.024;8.246;2023-07-02T01:23:54;6.70;;;4.88;;
22603;SDS011;11469;49.024;8.246;2023-07-02T01:29:14;5.70;;;4.30;;
22603;SDS011;11469;49.024;8.246;2023-07-02T01:31:41;13.75;;;4.75;;
22603;SDS011;11469;49.024;8.246;2023-07-02T01:34:06;11.07;;;4.97;;
22603;SDS011;11469;49.024;8.246;2023-07-02T01:36:33;8.77;;;3.97;;
22603;SDS011;11469;49.024;8.246;2023-07-02T01:38:58;7.43;;;4.50;;
22603;SDS011;11469;49.024;8.246;2023-07-02T01:41:24;10.75;;;4.15;;
22603;SDS011;11469;49.024;8.246;2023-07-02T01:43:49;7.00;;;3.78;;
22603;SDS011;11469;49.024;8.246;2023-07-02T01:46:14;13.60;;;4.07;;
22603;SDS011;11469;49.024;8.246;2023-07-02T01:48:40;7.32;;;4.20;;
22603;SDS011;11469;49.024;8.246;2023-07-02T01:51:05;11.45;;;4.20;;
22603;SDS011;11469;49.024;8.246;2023-07-02T01:53:31;5.38;;;3.42;;
22603;SDS011;11469;49.024;8.246;2023-07-02T01:55:56;10.63;;;3.55;;
22603;SDS011;11469;49.024;8.246;2023-07-02T01:58:21;9.00;;;3.22;;
22603;SDS011;11469;49.024;8.246;2023-07-02T02:00:47;16.33;;;3.90;;
22603;SDS011;11469;49.024;8.246;2023-07-02T02:03:12;13.13;;;3.83;;
22603;SDS011;11469;49.024;8.246;2023-07-02T02:05:38;8.90;;;3.83;;
22603;SDS011;11469;49.024;8.246;2023-07-02T02:08:03;9.07;;;3.28;;
22603;SDS011;11469;49.024;8.246;2023-07-02T02:10:28;10.90;;;3.47;;
22603;SDS011;11469;49.024;8.246;2023-07-02T02:12:54;10.32;;;4.05;;
22603;SDS011;11469;49.024;8.246;2023-07-02T02:15:19;12.02;;;3.80;;
22603;SDS011;11469;49.024;8.246;2023-07-02T02:17:44;12.82;;;3.33;;
22603;SDS011;11469;49.024;8.246;2023-07-02T02:20:10;7.97;;;4.00;;
22603;SDS011;11469;49.024;8.246;2023-07-02T02:22:36;11.05;;;3.55;;
22603;SDS011;11469;49.024;8.246;2023-07-02T02:25:02;4.72;;;3.03;;
22603;SDS011;11469;49.024;8.246;2023-07-02T02:27:28;9.48;;;3.80;;
22603;SDS011;11469;49.024;8.246;2023-07-02T02:29:54;9.57;;;3.72;;
22603;SDS011;11469;49.024;8.246;2023-07-02T02:32:19;5.95;;;3.50;;
22603;SDS011;11469;49.024;8.246;2023-07-02T02:34:46;13.55;;;4.15;;
22603;SDS011;11469;49.024;8.246;2023-07-02T02:37:12;8.02;;;3.63;;
22603;SDS011;11469;49.024;8.246;2023-07-02T02:39:37;5.88;;;3.22;;
22603;SDS011;11469;49.024;8.246;2023-07-02T02:42:02;8.13;;;3.67;;
22603;SDS011;11469;49.024;8.246;2023-07-02T02:44:28;11.07;;;3.65;;
22603;SDS011;11469;49.024;8.246;2023-07-02T02:46:54;11.25;;;3.60;;
22603;SDS011;11469;49.024;8.246;2023-07-02T02:49:20;10.65;;;3.50;;
22603;SDS011;11469;49.024;8.246;2023-07-02T02:51:45;10.85;;;4.05;;
22603;SDS011;11469;49.024;8.246;2023-07-02T02:54:11;7.35;;;3.58;;
22603;SDS011;11469;49.024;8.246;2023-07-02T02:56:36;8.65;;;3.60;;
22603;SDS011;11469;49.024;8.246;2023-07-02T02:59:01;6.45;;;3.05;;
22603;SDS011;11469;49.024;8.246;2023-07-02T03:01:27;7.72;;;3.72;;
22603;SDS011;11469;49.024;8.246;2023-07-02T03:03:55;4.72;;;2.83;;
22603;SDS011;11469;49.024;8.246;2023-07-02T03:06:20;10.93;;;3.95;;
22603;SDS011;11469;49.024;8.246;2023-07-02T03:08:45;10.48;;;3.88;;
22603;SDS011;11469;49.024;8.246;2023-07-02T03:11:11;5.95;;;3.13;;
22603;SDS011;11469;49.024;8.246;2023-07-02T03:13:36;12.20;;;4.25;;
22603;SDS011;11469;49.024;8.246;2023-07-02T03:16:02;12.55;;;3.95;;
22603;SDS011;11469;49.024;8.246;2023-07-02T03:18:27;15.73;;;4.40;;
22603;SDS011;11469;49.024;8.246;2023-07-02T03:20:52;13.52;;;4.13;;
22603;SDS011;11469;49.024;8.246;2023-07-02T03:23:18;10.07;;;3.95;;
22603;SDS011;11469;49.024;8.246;2023-07-02T03:25:43;10.55;;;4.30;;
22603;SDS011;11469;49.024;8.246;2023-07-02T03:28:08;10.52;;;3.63;;
22603;SDS011;11469;49.024;8.246;2023-07-02T03:30:34;12.13;;;3.92;;
22603;SDS011;11469;49.024;8.246;2023-07-02T03:32:59;7.93;;;3.78;;
22603;SDS011;11469;49.024;8.246;2023-07-02T03:35:25;17.08;;;4.90;;
22603;SDS011;11469;49.024;8.246;2023-07-02T03:37:50;10.73;;;4.35;;
22603;SDS011;11469;49.024;8.246;2023-07-02T03:40:15;13.15;;;4.53;;
22603;SDS011;11469;49.024;8.246;2023-07-02T03:42:43;8.60;;;4.03;;
22603;SDS011;11469;49.024;8.246;2023-07-02T03:45:09;9.15;;;4.63;;
22603;SDS011;11469;49.024;8.246;2023-07-02T03:47:34;16.25;;;5.00;;
22603;SDS011;11469;49.024;8.246;2023-07-02T03:50:00;11.82;;;3.67;;
22603;SDS011;11469;49.024;8.246;2023-07-02T03:52:26;11.60;;;4.10;;
22603;SDS011;11469;49.024;8.246;2023-07-02T03:54:51;14.68;;;4.10;;
22603;SDS011;11469;49.024;8.246;2023-07-02T03:57:16;10.93;;;4.10;;
22603;SDS011;11469;49.024;8.246;2023-07-02T03:59:42;9.63;;;4.28;;
22603;SDS011;11469;49.024;8.246;2023-07-02T04:02:07;14.70;;;4.65;;
22603;SDS011;11469;49.024;8.246;2023-07-02T04:04:32;18.05;;;5.18;;
22603;SDS011;11469;49.024;8.246;2023-07-02T04:06:58;14.93;;;4.72;;
22603;SDS011;11469;49.024;8.246;2023-07-02T04:09:23;16.67;;;4.65;;
22603;SDS011;11469;49.024;8.246;2023-07-02T04:11:49;13.88;;;4.75;;
22603;SDS011;11469;49.024;8.246;2023-07-02T04:14:14;7.90;;;4.97;;
22603;SDS011;11469;49.024;8.246;2023-07-02T04:16:39;16.20;;;5.00;;
22603;SDS011;11469;49.024;8.246;2023-07-02T04:19:05;11.27;;;5.35;;
22603;SDS011;11469;49.024;8.246;2023-07-02T04:21:30;13.77;;;5.75;;
22603;SDS011;11469;49.024;8.246;2023-07-02T04:23:55;18.27;;;5.20;;
22603;SDS011;11469;49.024;8.246;2023-07-02T04:26:21;17.73;;;5.82;;
22603;SDS011;11469;49.024;8.246;2023-07-02T04:28:46;22.58;;;6.07;;
22603;SDS011;11469;49.024;8.246;2023-07-02T04:31:12;14.90;;;5.10;;
22603;SDS011;11469;49.024;8.246;2023-07-02T04:33:37;15.07;;;6.03;;
22603;SDS011;11469;49.024;8.246;2023-07-02T04:36:03;13.45;;;5.43;;
22603;SDS011;11469;49.024;8.246;2023-07-02T04:38:29;12.98;;;6.13;;
22603;SDS011;11469;49.024;8.246;2023-07-02T04:40:54;15.73;;;6.47;;
22603;SDS011;11469;49.024;8.246;2023-07-02T04:43:26;15.23;;;5.72;;
22603;SDS011;11469;49.024;8.246;2023-07-02T04:45:54;15.82;;;6.55;;
22603;SDS011;11469;49.024;8.246;2023-07-02T04:48:20;17.85;;;6.05;;
22603;SDS011;11469;49.024;8.246;2023-07-02T04:50:45;11.00;;;5.65;;
22603;SDS011;11469;49.024;8.246;2023-07-02T04:53:11;13.65;;;5.35;;
22603;SDS011;11469;49.024;8.246;2023-07-02T04:55:36;13.48;;;5.95;;
22603;SDS011;11469;49.024;8.246;2023-07-02T04:58:01;20.27;;;5.95;;
22603;SDS011;11469;49.024;8.246;2023-07-02T05:00:27;13.60;;;5.68;;
22603;SDS011;11469;49.024;8.246;2023-07-02T05:02:52;14.98;;;5.85;;
22603;SDS011;11469;49.024;8.246;2023-07-02T05:05:18;17.00;;;5.85;;
22603;SDS011;11469;49.024;8.246;2023-07-02T05:07:43;17.15;;;5.50;;
22603;SDS011;11469;49.024;8.246;2023-07-02T05:10:09;18.27;;;6.18;;
22603;SDS011;11469;49.024;8.246;2023-07-02T05:12:34;15.63;;;6.68;;
22603;SDS011;11469;49.024;8.246;2023-07-02T05:15:00;21.35;;;6.78;;
22603;SDS011;11469;49.024;8.246;2023-07-02T05:17:25;15.82;;;6.82;;
22603;SDS011;11469;49.024;8.246;2023-07-02T05:19:51;18.88;;;6.68;;
22603;SDS011;11469;49.024;8.246;2023-07-02T05:22:17;21.50;;;7.63;;
22603;SDS011;11469;49.024;8.246;2023-07-02T05:24:42;14.80;;;7.32;;
22603;SDS011;11469;49.024;8.246;2023-07-02T05:27:09;16.40;;;6.68;;
22603;SDS011;11469;49.024;8.246;2023-07-02T05:29:34;15.88;;;6.55;;
22603;SDS011;11469;49.024;8.246;2023-07-02T05:31:59;15.30;;;6.78;;
22603;SDS011;11469;49.024;8.246;2023-07-02T05:34:25;15.48;;;6.40;;
22603;SDS011;11469;49.024;8.246;2023-07-02T05:36:50;16.05;;;6.30;;
22603;SDS011;11469;49.024;8.246;2023-07-02T05:39:16;20.45;;;7.00;;
22603;SDS011;11469;49.024;8.246;2023-07-02T05:41:41;17.58;;;6.68;;
22603;SDS011;11469;49.024;8.246;2023-07-02T05:44:07;15.40;;;6.40;;
22603;SDS011;11469;49.024;8.246;2023-07-02T05:46:32;14.50;;;5.85;;
22603;SDS011;11469;49.024;8.246;2023-07-02T05:48:57;16.33;;;5.50;;
22603;SDS011;11469;49.024;8.246;2023-07-02T05:51:24;15.68;;;5.40;;
22603;SDS011;11469;49.024;8.246;2023-07-02T05:53:50;23.40;;;6.03;;
22603;SDS011;11469;49.024;8.246;2023-07-02T05:56:16;17.55;;;5.32;;
22603;SDS011;11469;49.024;8.246;2023-07-02T05:58:42;23.02;;;5.97;;
22603;SDS011;11469;49.024;8.246;2023-07-02T06:01:08;13.38;;;5.50;;
22603;SDS011;11469;49.024;8.246;2023-07-02T06:03:33;12.68;;;5.75;;
22603;SDS011;11469;49.024;8.246;2023-07-02T06:05:59;14.23;;;5.63;;
22603;SDS011;11469;49.024;8.246;2023-07-02T06:08:24;17.42;;;6.13;;
22603;SDS011;11469;49.024;8.246;2023-07-02T06:10:50;17.02;;;5.75;;
22603;SDS011;11469;49.024;8.246;2023-07-02T06:13:16;15.23;;;6.43;;
22603;SDS011;11469;49.024;8.246;2023-07-02T06:15:41;21.85;;;6.35;;
22603;SDS011;11469;49.024;8.246;2023-07-02T06:18:07;14.40;;;6.13;;
22603;SDS011;11469;49.024;8.246;2023-07-02T06:20:32;20.40;;;7.30;;
22603;SDS011;11469;49.024;8.246;2023-07-02T06:22:58;19.55;;;7.30;;
22603;SDS011;11469;49.024;8.246;2023-07-02T06:25:23;17.58;;;7.97;;
22603;SDS011;11469;49.024;8.246;2023-07-02T06:27:49;27.42;;;7.90;;
22603;SDS011;11469;49.024;8.246;2023-07-02T06:30:14;31.02;;;8.80;;
22603;SDS011;11469;49.024;8.246;2023-07-02T06:32:40;28.15;;;9.52;;
22603;SDS011;11469;49.024;8.246;2023-07-02T06:35:05;22.85;;;8.77;;
22603;SDS011;11469;49.024;8.246;2023-07-02T06:37:31;20.65;;;10.27;;
22603;SDS011;11469;49.024;8.246;2023-07-02T06:39:57;32.47;;;10.80;;
22603;SDS011;11469;49.024;8.246;2023-07-02T06:42:23;24.65;;;10.63;;
22603;SDS011;11469;49.024;8.246;2023-07-02T06:44:49;25.05;;;10.90;;
22603;SDS011;11469;49.024;8.246;2023-07-02T06:47:14;23.85;;;10.70;;
22603;SDS011;11469;49.024;8.246;2023-07-02T06:49:40;24.17;;;12.23;;
22603;SDS011;11469;49.024;8.246;2023-07-02T06:52:05;30.77;;;12.50;;
22603;SDS011;11469;49.024;8.246;2023-07-02T06:54:31;32.47;;;12.52;;
22603;SDS011;11469;49.024;8.246;2023-07-02T06:56:56;27.30;;;11.93;;
22603;SDS011;11469;49.024;8.246;2023-07-02T06:59:22;24.60;;;12.45;;
22603;SDS011;11469;49.024;8.246;2023-07-02T07:01:48;34.47;;;12.57;;
22603;SDS011;11469;49.024;8.246;2023-07-02T07:04:14;25.92;;;12.40;;
22603;SDS011;11469;49.024;8.246;2023-07-02T07:06:39;30.65;;;14.07;;
22603;SDS011;11469;49.024;8.246;2023-07-02T07:09:05;21.35;;;12.05;;
22603;SDS011;11469;49.024;8.246;2023-07-02T07:11:30;28.80;;;13.18;;
22603;SDS011;11469;49.024;8.246;2023-07-02T07:13:56;32.75;;;13.75;;
22603;SDS011;11469;49.024;8.246;2023-07-02T07:16:21;29.25;;;13.50;;
22603;SDS011;11469;49.024;8.246;2023-07-02T07:18:47;33.30;;;13.38;;
22603;SDS011;11469;49.024;8.246;2023-07-02T07:21:13;26.48;;;13.38;;
22603;SDS011;11469;49.024;8.246;2023-07-02T07:23:39;36.30;;;14.93;;
22603;SDS011;11469;49.024;8.246;2023-07-02T07:26:04;27.15;;;13.95;;
22603;SDS011;11469;49.024;8.246;2023-07-02T07:28:30;38.22;;;15.45;;
22603;SDS011;11469;49.024;8.246;2023-07-02T07:30:56;28.35;;;14.27;;
22603;SDS011;11469;49.024;8.246;2023-07-02T07:33:21;28.58;;;14.35;;
22603;SDS011;11469;49.024;8.246;2023-07-02T07:35:46;31.42;;;15.02;;
22603;SDS011;11469;49.024;8.246;2023-07-02T07:38:15;35.22;;;15.63;;
22603;SDS011;11469;49.024;8.246;2023-07-02T07:40:44;32.80;;;15.13;;
22603;SDS011;11469;49.024;8.246;2023-07-02T07:43:10;32.58;;;16.85;;
22603;SDS011;11469;49.024;8.246;2023-07-02T07:45:35;34.97;;;17.13;;
22603;SDS011;11469;49.024;8.246;2023-07-02T07:48:01;35.38;;;17.15;;
22603;SDS011;11469;49.024;8.246;2023-07-02T07:50:27;37.22;;;17.40;;
22603;SDS011;11469;49.024;8.246;2023-07-02T07:52:53;31.75;;;17.17;;
22603;SDS011;11469;49.024;8.246;2023-07-02T07:55:18;38.10;;;16.58;;
22603;SDS011;11469;49.024;8.246;2023-07-02T07:57:44;36.67;;;17.63;;
22603;SDS011;11469;49.024;8.246;2023-07-02T08:00:09;37.03;;;18.05;;
22603;SDS011;11469;49.024;8.246;2023-07-02T08:02:35;40.08;;;17.77;;
22603;SDS011;11469;49.024;8.246;2023-07-02T08:05:00;41.97;;;16.75;;
22603;SDS011;11469;49.024;8.246;2023-07-02T08:07:26;39.95;;;19.33;;
22603;SDS011;11469;49.024;8.246;2023-07-02T08:09:51;41.47;;;19.65;;
22603;SDS011;11469;49.024;8.246;2023-07-02T08:12:17;45.95;;;20.88;;
22603;SDS011;11469;49.024;8.246;2023-07-02T08:14:42;43.67;;;20.17;;
22603;SDS011;11469;49.024;8.246;2023-07-02T08:17:07;50.50;;;21.42;;
22603;SDS011;11469;49.024;8.246;2023-07-02T08:19:33;45.17;;;21.58;;
22603;SDS011;11469;49.024;8.246;2023-07-02T08:21:58;41.30;;;21.55;;
22603;SDS011;11469;49.024;8.246;2023-07-02T08:24:23;40.80;;;19.50;;
22603;SDS011;11469;49.024;8.246;2023-07-02T08:26:49;41.08;;;20.30;;
22603;SDS011;11469;49.024;8.246;2023-07-02T08:29:14;42.83;;;20.83;;
22603;SDS011;11469;49.024;8.246;2023-07-02T08:31:40;44.72;;;21.95;;
22603;SDS011;11469;49.024;8.246;2023-07-02T08:34:06;50.30;;;20.42;;
22603;SDS011;11469;49.024;8.246;2023-07-02T08:36:32;44.13;;;21.90;;
22603;SDS011;11469;49.024;8.246;2023-07-02T08:38:57;49.10;;;22.77;;
22603;SDS011;11469;49.024;8.246;2023-07-02T08:41:22;48.15;;;20.13;;
22603;SDS011;11469;49.024;8.246;2023-07-02T08:43:49;42.15;;;20.77;;
22603;SDS011;11469;49.024;8.246;2023-07-02T08:46:16;41.63;;;20.45;;
22603;SDS011;11469;49.024;8.246;2023-07-02T08:48:41;38.15;;;20.52;;
22603;SDS011;11469;49.024;8.246;2023-07-02T08:51:07;43.38;;;21.08;;
22603;SDS011;11469;49.024;8.246;2023-07-02T08:53:35;43.20;;;21.17;;
22603;SDS011;11469;49.024;8.246;2023-07-02T08:56:01;42.83;;;21.27;;
22603;SDS011;11469;49.024;8.246;2023-07-02T08:58:28;43.25;;;21.17;;
22603;SDS011;11469;49.024;8.246;2023-07-02T09:01:06;43.55;;;22.60;;
22603;SDS011;11469;49.024;8.246;2023-07-02T09:03:36;47.33;;;22.45;;
22603;SDS011;11469;49.024;8.246;2023-07-02T09:06:02;45.17;;;21.30;;
22603;SDS011;11469;49.024;8.246;2023-07-02T09:08:29;46.25;;;21.77;;
22603;SDS011;11469;49.024;8.246;2023-07-02T09:11:04;46.97;;;23.73;;
22603;SDS011;11469;49.024;8.246;2023-07-02T09:13:30;41.90;;;21.10;;
22603;SDS011;11469;49.024;8.246;2023-07-02T09:15:56;39.90;;;20.70;;
22603;SDS011;11469;49.024;8.246;2023-07-02T09:18:22;38.63;;;21.15;;
22603;SDS011;11469;49.024;8.246;2023-07-02T09:20:51;44.03;;;22.08;;
22603;SDS011;11469;49.024;8.246;2023-07-02T09:23:19;46.97;;;21.63;;
22603;SDS011;11469;49.024;8.246;2023-07-02T09:25:45;52.08;;;22.98;;
22603;SDS011;11469;49.024;8.246;2023-07-02T09:28:21;49.38;;;22.20;;
22603;SDS011;11469;49.024;8.246;2023-07-02T09:30:57;46.28;;;21.38;;
22603;SDS011;11469;49.024;8.246;2023-07-02T09:33:27;42.85;;;21.08;;
22603;SDS011;11469;49.024;8.246;2023-07-02T09:35:53;41.92;;;20.23;;
22603;SDS011;11469;49.024;8.246;2023-07-02T09:38:20;37.78;;;20.17;;
22603;SDS011;11469;49.024;8.246;2023-07-02T09:40:50;40.08;;;19.48;;
22603;SDS011;11469;49.024;8.246;2023-07-02T09:43:17;47.08;;;21.33;;
22603;SDS011;11469;49.024;8.246;2023-07-02T09:45:47;41.25;;;21.42;;
22603;SDS011;11469;49.024;8.246;2023-07-02T09:48:15;48.55;;;22.00;;
22603;SDS011;11469;49.024;8.246;2023-07-02T09:50:42;38.47;;;20.27;;
22603;SDS011;11469;49.024;8.246;2023-07-02T09:53:10;41.65;;;20.33;;
22603;SDS011;11469;49.024;8.246;2023-07-02T09:55:36;38.38;;;20.08;;
22603;SDS011;11469;49.024;8.246;2023-07-02T09:58:07;38.13;;;20.42;;
22603;SDS011;11469;49.024;8.246;2023-07-02T10:00:33;44.78;;;20.25;;
22603;SDS011;11469;49.024;8.246;2023-07-02T10:02:58;40.28;;;20.45;;
22603;SDS011;11469;49.024;8.246;2023-07-02T10:05:31;38.88;;;20.48;;
22603;SDS011;11469;49.024;8.246;2023-07-02T10:07:58;39.78;;;20.20;;
22603;SDS011;11469;49.024;8.246;2023-07-02T10:10:38;41.15;;;21.60;;
22603;SDS011;11469;49.024;8.246;2023-07-02T10:13:04;35.58;;;19.42;;
22603;SDS011;11469;49.024;8.246;2023-07-02T10:15:30;41.90;;;20.35;;
22603;SDS011;11469;49.024;8.246;2023-07-02T10:18:00;35.92;;;19.33;;
22603;SDS011;11469;49.024;8.246;2023-07-02T10:23:05;40.17;;;20.65;;
22603;SDS011;11469;49.024;8.246;2023-07-02T10:25:33;42.45;;;19.40;;
22603;SDS011;11469;49.024;8.246;2023-07-02T10:28:13;47.70;;;20.15;;
22603;SDS011;11469;49.024;8.246;2023-07-02T10:30:39;42.13;;;20.15;;
22603;SDS011;11469;49.024;8.246;2023-07-02T10:33:15;34.58;;;18.20;;
22603;SDS011;11469;49.024;8.246;2023-07-02T10:35:42;33.70;;;18.38;;
22603;SDS011;11469;49.024;8.246;2023-07-02T10:38:21;37.47;;;19.83;;
22603;SDS011;11469;49.024;8.246;2023-07-02T10:40:53;35.63;;;19.42;;
22603;SDS011;11469;49.024;8.246;2023-07-02T10:43:24;40.30;;;20.75;;
22603;SDS011;11469;49.024;8.246;2023-07-02T10:45:54;41.72;;;19.60;;
22603;SDS011;11469;49.024;8.246;2023-07-02T10:48:20;35.50;;;19.67;;
22603;SDS011;11469;49.024;8.246;2023-07-02T10:50:45;34.88;;;18.88;;
22603;SDS011;11469;49.024;8.246;2023-07-02T10:53:17;38.97;;;21.08;;
22603;SDS011;11469;49.024;8.246;2023-07-02T10:55:43;40.63;;;20.65;;
22603;SDS011;11469;49.024;8.246;2023-07-02T10:58:10;45.80;;;21.90;;
22603;SDS011;11469;49.024;8.246;2023-07-02T11:00:46;42.92;;;20.52;;
22603;SDS011;11469;49.024;8.246;2023-07-02T11:03:16;39.33;;;19.27;;
22603;SDS011;11469;49.024;8.246;2023-07-02T11:05:42;40.13;;;19.83;;
22603;SDS011;11469;49.024;8.246;2023-07-02T11:08:08;43.42;;;20.88;;
22603;SDS011;11469;49.024;8.246;2023-07-02T11:10:34;41.83;;;20.15;;
22603;SDS011;11469;49.024;8.246;2023-07-02T11:13:09;38.95;;;19.25;;
22603;SDS011;11469;49.024;8.246;2023-07-02T11:15:38;38.42;;;18.90;;
22603;SDS011;11469;49.024;8.246;2023-07-02T11:18:09;42.60;;;19.80;;
22603;SDS011;11469;49.024;8.246;2023-07-02T11:20:36;35.72;;;18.45;;
22603;SDS011;11469;49.024;8.246;2023-07-02T11:23:01;39.83;;;21.63;;
22603;SDS011;11469;49.024;8.246;2023-07-02T11:25:27;46.55;;;23.77;;
22603;SDS011;11469;49.024;8.246;2023-07-02T11:28:01;40.05;;;20.45;;
22603;SDS011;11469;49.024;8.246;2023-07-02T11:30:28;48.47;;;26.13;;
22603;SDS011;11469;49.024;8.246;2023-07-02T11:32:54;37.67;;;18.67;;
22603;SDS011;11469;49.024;8.246;2023-07-02T11:35:20;38.72;;;20.73;;
22603;SDS011;11469;49.024;8.246;2023-07-02T11:37:46;34.28;;;18.50;;
22603;SDS011;11469;49.024;8.246;2023-07-02T11:40:14;37.92;;;19.50;;
22603;SDS011;11469;49.024;8.246;2023-07-02T11:42:40;37.22;;;19.35;;
22603;SDS011;11469;49.024;8.246;2023-07-02T11:45:05;35.17;;;18.65;;
22603;SDS011;11469;49.024;8.246;2023-07-02T11:47:31;39.95;;;19.90;;
22603;SDS011;11469;49.024;8.246;2023-07-02T11:49:57;40.63;;;19.60;;
22603;SDS011;11469;49.024;8.246;2023-07-02T11:52:24;37.03;;;19.85;;
22603;SDS011;11469;49.024;8.246;2023-07-02T11:54:50;38.88;;;20.63;;
22603;SDS011;11469;49.024;8.246;2023-07-02T11:57:15;34.35;;;19.20;;
22603;SDS011;11469;49.024;8.246;2023-07-02T11:59:41;40.35;;;19.80;;
22603;SDS011;11469;49.024;8.246;2023-07-02T12:02:07;34.00;;;18.08;;
22603;SDS011;11469;49.024;8.246;2023-07-02T12:04:32;36.53;;;19.35;;
22603;SDS011;11469;49.024;8.246;2023-07-02T12:06:57;34.15;;;19.10;;
22603;SDS011;11469;49.024;8.246;2023-07-02T12:09:23;39.15;;;19.75;;
22603;SDS011;11469;49.024;8.246;2023-07-02T12:11:48;38.55;;;19.35;;
22603;SDS011;11469;49.024;8.246;2023-07-02T12:14:14;35.55;;;20.33;;
22603;SDS011;11469;49.024;8.246;2023-07-02T12:16:39;40.58;;;20.48;;
22603;SDS011;11469;49.024;8.246;2023-07-02T12:19:05;40.03;;;19.85;;
22603;SDS011;11469;49.024;8.246;2023-07-02T12:21:30;41.30;;;20.45;;
22603;SDS011;11469;49.024;8.246;2023-07-02T12:23:56;38.88;;;20.35;;
22603;SDS011;11469;49.024;8.246;2023-07-02T12:26:22;40.20;;;19.35;;
22603;SDS011;11469;49.024;8.246;2023-07-02T12:28:47;33.95;;;19.00;;
22603;SDS011;11469;49.024;8.246;2023-07-02T12:31:12;34.95;;;19.27;;
22603;SDS011;11469;49.024;8.246;2023-07-02T12:33:39;31.90;;;17.60;;
22603;SDS011;11469;49.024;8.246;2023-07-02T12:36:05;34.90;;;18.50;;
22603;SDS011;11469;49.024;8.246;2023-07-02T12:38:30;33.63;;;18.95;;
22603;SDS011;11469;49.024;8.246;2023-07-02T12:40:56;32.90;;;18.55;;
22603;SDS011;11469;49.024;8.246;2023-07-02T12:43:21;33.15;;;18.20;;
22603;SDS011;11469;49.024;8.246;2023-07-02T12:45:46;35.67;;;18.50;;
22603;SDS011;11469;49.024;8.246;2023-07-02T12:48:12;34.58;;;17.95;;
22603;SDS011;11469;49.024;8.246;2023-07-02T12:50:38;36.78;;;18.02;;
22603;SDS011;11469;49.024;8.246;2023-07-02T12:53:04;32.58;;;17.05;;
22603;SDS011;11469;49.024;8.246;2023-07-02T12:55:30;30.40;;;16.17;;
22603;SDS011;11469;49.024;8.246;2023-07-02T12:57:55;32.38;;;16.95;;
22603;SDS011;11469;49.024;8.246;2023-07-02T13:00:21;30.35;;;17.65;;
22603;SDS011;11469;49.024;8.246;2023-07-02T13:02:46;31.08;;;17.30;;
22603;SDS011;11469;49.024;8.246;2023-07-02T13:05:12;33.28;;;16.40;;
22603;SDS011;11469;49.024;8.246;2023-07-02T13:07:38;32.45;;;16.42;;
22603;SDS011;11469;49.024;8.246;2023-07-02T13:10:04;32.55;;;16.77;;
22603;SDS011;11469;49.024;8.246;2023-07-02T13:12:30;29.60;;;16.50;;
22603;SDS011;11469;49.024;8.246;2023-07-02T13:14:55;29.95;;;17.48;;
22603;SDS011;11469;49.024;8.246;2023-07-02T13:17:20;29.42;;;17.40;;
22603;SDS011;11469;49.024;8.246;2023-07-02T13:19:46;33.78;;;17.13;;
22603;SDS011;11469;49.024;8.246;2023-07-02T13:22:11;33.15;;;17.92;;
22603;SDS011;11469;49.024;8.246;2023-07-02T13:24:37;26.63;;;16.23;;
22603;SDS011;11469;49.024;8.246;2023-07-02T13:27:03;31.48;;;16.73;;
22603;SDS011;11469;49.024;8.246;2023-07-02T13:29:32;30.08;;;16.02;;
22603;SDS011;11469;49.024;8.246;2023-07-02T13:31:57;30.48;;;17.35;;
22603;SDS011;11469;49.024;8.246;2023-07-02T13:34:23;26.92;;;15.50;;
22603;SDS011;11469;49.024;8.246;2023-07-02T13:36:48;31.25;;;16.30;;
22603;SDS011;11469;49.024;8.246;2023-07-02T13:39:15;31.63;;;15.70;;
22603;SDS011;11469;49.024;8.246;2023-07-02T13:41:40;31.77;;;15.35;;
22603;SDS011;11469;49.024;8.246;2023-07-02T13:44:06;31.52;;;16.50;;
22603;SDS011;11469;49.024;8.246;2023-07-02T13:46:31;32.00;;;16.70;;
22603;SDS011;11469;49.024;8.246;2023-07-02T13:48:56;39.50;;;17.25;;
22603;SDS011;11469;49.024;8.246;2023-07-02T13:51:22;31.20;;;15.80;;
22603;SDS011;11469;49.024;8.246;2023-07-02T13:53:47;32.20;;;16.75;;
22603;SDS011;11469;49.024;8.246;2023-07-02T13:56:12;27.00;;;16.20;;
22603;SDS011;11469;49.024;8.246;2023-07-02T13:58:58;26.98;;;15.60;;
22603;SDS011;11469;49.024;8.246;2023-07-02T14:01:25;30.08;;;15.55;;
22603;SDS011;11469;49.024;8.246;2023-07-02T14:03:50;29.60;;;16.88;;
22603;SDS011;11469;49.024;8.246;2023-07-02T14:06:17;28.83;;;15.45;;
22603;SDS011;11469;49.024;8.246;2023-07-02T14:08:43;38.25;;;16.38;;
22603;SDS011;11469;49.024;8.246;2023-07-02T14:11:08;28.70;;;16.23;;
22603;SDS011;11469;49.024;8.246;2023-07-02T14:13:34;35.33;;;16.85;;
22603;SDS011;11469;49.024;8.246;2023-07-02T14:15:59;35.35;;;16.50;;
22603;SDS011;11469;49.024;8.246;2023-07-02T14:18:26;30.23;;;16.15;;
22603;SDS011;11469;49.024;8.246;2023-07-02T14:20:51;27.15;;;15.40;;
22603;SDS011;11469;49.024;8.246;2023-07-02T14:23:17;24.17;;;14.38;;
22603;SDS011;11469;49.024;8.246;2023-07-02T14:25:42;31.85;;;14.63;;
22603;SDS011;11469;49.024;8.246;2023-07-02T14:28:08;31.45;;;15.38;;